createdAt,value
2023-01-01T00:02:37.177Z,3.09
2023-01-01T00:05:44.595Z,3.05
2023-01-01T00:08:52.566Z,3.03
2023-01-01T00:12:00.026Z,3.05
2023-01-01T00:15:04.915Z,3.04
2023-01-01T00:18:08.333Z,3.02
2023-01-01T00:21:16.216Z,3.00
2023-01-01T00:24:21.898Z,2.98
2023-01-01T00:27:26.282Z,2.98
2023-01-01T00:30:32.376Z,2.99
2023-01-01T00:33:36.692Z,3.05
2023-01-01T00:36:42.562Z,3.08
2023-01-01T00:39:46.063Z,3.09
2023-01-01T00:42:51.435Z,3.08
2023-01-01T00:45:57.813Z,3.10
2023-01-01T00:49:03.304Z,3.09
2023-01-01T00:52:07.894Z,3.10
2023-01-01T00:55:13.729Z,3.15
2023-01-01T00:58:26.750Z,3.12
2023-01-01T01:01:35.622Z,3.11
2023-01-01T01:04:42.900Z,3.09
2023-01-01T01:07:53.764Z,3.08
2023-01-01T01:11:12.186Z,3.11
2023-01-01T01:14:19.249Z,3.19
2023-01-01T01:17:24.560Z,3.24
2023-01-01T01:20:32.645Z,3.31
2023-01-01T01:23:38.311Z,3.26
2023-01-01T01:26:43.682Z,3.26
2023-01-01T01:29:47.805Z,3.13
2023-01-01T01:32:53.777Z,3.18
2023-01-01T01:35:59.943Z,3.19
2023-01-01T01:39:07.016Z,3.13
2023-01-01T01:42:19.958Z,2.99
2023-01-01T01:45:33.140Z,2.99
2023-01-01T01:48:44.133Z,3.02
2023-01-01T01:51:50.234Z,2.90
2023-01-01T01:54:54.625Z,2.95
2023-01-01T01:57:59.937Z,2.80
2023-01-01T02:01:04.103Z,2.76
2023-01-01T02:04:07.791Z,2.80
2023-01-01T02:07:13.381Z,2.82
2023-01-01T02:10:17.170Z,3.01
2023-01-01T02:13:22.035Z,2.89
2023-01-01T02:16:45.109Z,2.98
2023-01-01T02:20:08.829Z,2.85
2023-01-01T02:23:34.652Z,2.91
2023-01-01T02:26:52.846Z,2.91
2023-01-01T02:30:01.129Z,2.95
2023-01-01T02:33:09.617Z,2.97
2023-01-01T02:36:13.610Z,2.93
2023-01-01T02:39:20.414Z,2.97
2023-01-01T02:42:28.779Z,3.05
2023-01-01T02:45:34.376Z,3.12
2023-01-01T02:48:46.359Z,3.05
2023-01-01T02:52:03.034Z,3.02
2023-01-01T02:55:31.126Z,2.88
2023-01-01T02:59:00.355Z,2.78
2023-01-01T03:02:05.563Z,2.79
2023-01-01T03:05:12.769Z,2.78
2023-01-01T03:08:22.060Z,2.73
2023-01-01T03:11:35.886Z,2.85
2023-01-01T03:14:47.107Z,2.77
2023-01-01T03:18:05.728Z,2.76
2023-01-01T03:24:25.956Z,2.91
2023-01-01T03:27:38.261Z,2.80
2023-01-01T03:30:47.817Z,2.86
2023-01-01T03:33:59.778Z,2.85
2023-01-01T03:37:13.224Z,2.84
2023-01-01T03:40:21.366Z,2.80
2023-01-01T03:43:46.602Z,2.72
2023-01-01T03:46:56.415Z,2.66
2023-01-01T03:50:02.446Z,2.71
2023-01-01T03:53:18.123Z,2.74
2023-01-01T03:56:42.680Z,2.80
2023-01-01T04:00:09.591Z,2.86
2023-01-01T04:03:22.087Z,2.90
2023-01-01T04:06:29.686Z,3.01
2023-01-01T04:09:39.772Z,2.98
2023-01-01T04:12:48.072Z,2.93
2023-01-01T04:15:59.170Z,2.85
2023-01-01T04:19:09.121Z,2.84
2023-01-01T04:22:19.672Z,3.07
2023-01-01T04:25:28.194Z,2.92
2023-01-01T04:28:34.615Z,2.98
2023-01-01T04:31:42.116Z,2.99
2023-01-01T04:34:48.886Z,2.97
2023-01-01T04:37:56.463Z,3.11
2023-01-01T04:41:07.531Z,3.01
2023-01-01T04:44:17.272Z,3.10
2023-01-01T04:47:29.204Z,3.06
2023-01-01T04:50:36.828Z,3.06
2023-01-01T04:53:43.326Z,3.03
2023-01-01T04:56:51.874Z,2.89
2023-01-01T05:00:03.445Z,2.84
2023-01-01T05:03:10.085Z,2.94
2023-01-01T05:06:17.395Z,3.13
2023-01-01T05:09:28.686Z,3.05
2023-01-01T05:12:36.661Z,2.97
2023-01-01T05:15:46.102Z,2.92
2023-01-01T05:18:54.167Z,2.95
2023-01-01T05:22:00.946Z,3.00
2023-01-01T05:25:10.001Z,3.08
2023-01-01T05:28:18.069Z,3.12
2023-01-01T05:31:27.493Z,3.12
2023-01-01T05:37:38.990Z,3.10
2023-01-01T05:40:47.475Z,3.07
2023-01-01T05:43:55.595Z,3.11
2023-01-01T05:47:04.462Z,3.04
2023-01-01T05:50:15.152Z,3.04
2023-01-01T05:53:22.010Z,3.03
2023-01-01T05:56:28.836Z,3.14
2023-01-01T05:59:36.395Z,3.17
2023-01-01T06:02:42.943Z,3.08
2023-01-01T06:05:49.116Z,3.11
2023-01-01T06:08:56.657Z,2.97
2023-01-01T06:12:04.035Z,3.04
2023-01-01T06:15:13.720Z,3.00
2023-01-01T06:18:24.969Z,3.07
2023-01-01T06:21:30.646Z,3.11
2023-01-01T06:24:40.405Z,3.07
2023-01-01T06:27:45.555Z,3.13
2023-01-01T06:30:54.748Z,3.16
2023-01-01T06:34:01.654Z,3.04
2023-01-01T06:37:09.032Z,3.10
2023-01-01T06:40:17.625Z,3.11
2023-01-01T06:43:27.632Z,3.03
2023-01-01T06:46:36.110Z,3.07
2023-01-01T06:49:44.665Z,3.07
2023-01-01T06:52:51.097Z,3.32
2023-01-01T06:55:58.489Z,3.29
2023-01-01T06:59:06.345Z,3.28
2023-01-01T07:02:13.960Z,3.20
2023-01-01T07:05:19.411Z,3.21
2023-01-01T07:08:26.175Z,3.19
2023-01-01T07:11:34.681Z,3.22
2023-01-01T07:14:41.907Z,3.19
2023-01-01T07:17:49.018Z,3.34
2023-01-01T07:20:58.105Z,3.47
2023-01-01T07:24:09.541Z,3.32
2023-01-01T07:27:17.368Z,3.31
2023-01-01T07:30:24.731Z,3.45
2023-01-01T07:33:32.392Z,3.55
2023-01-01T07:36:39.111Z,3.54
2023-01-01T07:39:46.291Z,3.58
2023-01-01T07:42:55.642Z,3.62
2023-01-01T07:46:04.784Z,3.56
2023-01-01T07:49:15.451Z,3.71
2023-01-01T07:52:23.554Z,3.65
2023-01-01T07:55:35.159Z,3.67
2023-01-01T07:58:44.780Z,3.66
2023-01-01T08:01:51.724Z,3.75
2023-01-01T08:04:58.087Z,3.80
2023-01-01T08:08:04.819Z,3.91
2023-01-01T08:11:12.696Z,3.87
2023-01-01T08:14:20.475Z,4.02
2023-01-01T08:17:27.887Z,3.86
2023-01-01T08:20:35.310Z,3.83
2023-01-01T08:23:44.352Z,3.73
2023-01-01T08:26:52.648Z,3.94
2023-01-01T08:29:59.895Z,3.96
2023-01-01T08:33:07.680Z,3.94
2023-01-01T08:36:14.848Z,4.00
2023-01-01T08:39:22.275Z,4.05
2023-01-01T08:42:33.658Z,4.26
2023-01-01T08:45:40.589Z,4.34
2023-01-01T08:48:51.121Z,4.04
2023-01-01T08:52:03.001Z,4.27
2023-01-01T08:55:11.697Z,4.42
2023-01-01T08:58:18.824Z,4.57
2023-01-01T09:01:29.887Z,4.71
2023-01-01T09:04:35.859Z,4.60
2023-01-01T09:07:42.716Z,4.74
2023-01-01T09:10:48.687Z,4.85
2023-01-01T09:13:56.877Z,5.06
2023-01-01T09:17:02.217Z,5.28
2023-01-01T09:20:15.480Z,5.07
2023-01-01T09:23:24.296Z,4.89
2023-01-01T09:26:31.997Z,4.84
2023-01-01T09:29:37.702Z,4.66
2023-01-01T09:32:45.291Z,4.40
2023-01-01T09:35:50.973Z,4.37
2023-01-01T09:39:00.820Z,4.33
2023-01-01T09:42:08.132Z,4.30
2023-01-01T09:45:17.368Z,4.28
2023-01-01T09:48:28.106Z,4.40
2023-01-01T09:51:39.895Z,4.37
2023-01-01T09:54:55.773Z,4.46
2023-01-01T09:58:02.057Z,4.58
2023-01-01T10:01:28.991Z,4.76
2023-01-01T10:04:35.973Z,4.58
2023-01-01T10:07:56.668Z,4.53
2023-01-01T10:11:22.654Z,4.92
2023-01-01T10:14:37.356Z,5.23
2023-01-01T10:17:57.219Z,5.21
2023-01-01T10:21:25.156Z,4.69
2023-01-01T10:24:49.871Z,4.57
2023-01-01T10:28:00.024Z,4.51
2023-01-01T10:31:20.008Z,4.72
2023-01-01T10:34:27.686Z,5.00
2023-01-01T10:37:37.463Z,5.01
2023-01-01T10:40:44.659Z,5.45
2023-01-01T10:43:55.153Z,5.81
2023-01-01T10:47:04.023Z,5.99
2023-01-01T10:50:13.331Z,5.96
2023-01-01T10:53:22.273Z,5.97
2023-01-01T10:56:40.424Z,6.00
2023-01-01T10:59:54.278Z,6.18
2023-01-01T11:03:17.766Z,6.23
2023-01-01T11:06:27.961Z,6.22
2023-01-01T11:09:45.011Z,6.45
2023-01-01T11:13:05.596Z,6.72
2023-01-01T11:16:15.917Z,6.83
2023-01-01T11:19:27.601Z,7.15
2023-01-01T11:22:38.504Z,7.67
2023-01-01T11:25:56.884Z,7.40
2023-01-01T11:29:07.153Z,7.87
2023-01-01T11:32:19.535Z,7.18
2023-01-01T11:35:28.567Z,7.09
2023-01-01T11:38:35.726Z,6.85
2023-01-01T11:41:48.401Z,7.18
2023-01-01T11:45:02.923Z,7.20
2023-01-01T11:48:15.376Z,7.28
2023-01-01T11:51:32.791Z,7.19
2023-01-01T11:54:41.486Z,7.10
2023-01-01T11:57:56.306Z,6.72
2023-01-01T12:01:07.955Z,6.56
2023-01-01T12:04:28.450Z,6.40
2023-01-01T12:07:39.715Z,6.25
2023-01-01T12:10:56.294Z,6.17
2023-01-01T12:14:15.441Z,6.20
2023-01-01T12:17:29.403Z,6.20
2023-01-01T12:20:38.173Z,6.22
2023-01-01T12:23:48.169Z,6.53
2023-01-01T12:26:58.910Z,6.56
2023-01-01T12:30:22.876Z,6.42
2023-01-01T12:33:43.609Z,6.68
2023-01-01T12:36:50.250Z,6.85
2023-01-01T12:40:01.592Z,7.00
2023-01-01T12:43:12.963Z,7.11
2023-01-01T12:46:39.413Z,7.25
2023-01-01T12:49:53.620Z,6.83
2023-01-01T12:52:58.884Z,6.86
2023-01-01T12:56:08.133Z,6.95
2023-01-01T12:59:20.304Z,6.80
2023-01-01T13:02:30.853Z,6.69
2023-01-01T13:05:40.978Z,6.70
2023-01-01T13:08:52.655Z,6.43
2023-01-01T13:12:07.850Z,6.08
2023-01-01T13:15:33.576Z,6.18
2023-01-01T13:18:41.357Z,6.12
2023-01-01T13:21:49.178Z,6.23
2023-01-01T13:25:11.338Z,6.07
2023-01-01T13:28:20.649Z,6.08
2023-01-01T13:31:42.965Z,6.04
2023-01-01T13:35:00.817Z,5.96
2023-01-01T13:38:04.634Z,6.04
2023-01-01T13:41:30.831Z,5.94
2023-01-01T13:44:38.706Z,6.05
2023-01-01T13:47:54.692Z,6.16
2023-01-01T13:51:54.714Z,6.17
2023-01-01T13:55:05.525Z,6.25
2023-01-01T13:58:32.736Z,6.14
2023-01-01T14:01:50.863Z,6.08
2023-01-01T14:05:00.317Z,6.10
2023-01-01T14:08:11.489Z,6.25
2023-01-01T14:11:25.733Z,6.23
2023-01-01T14:14:31.736Z,6.08
2023-01-01T14:17:35.791Z,5.96
2023-01-01T14:20:44.506Z,5.89
2023-01-01T14:23:54.064Z,5.96
2023-01-01T14:26:58.859Z,6.01
2023-01-01T14:30:05.742Z,6.03
2023-01-01T14:33:21.555Z,6.08
2023-01-01T14:36:28.823Z,6.08
2023-01-01T14:39:35.397Z,6.09
2023-01-01T14:42:42.688Z,6.12
2023-01-01T14:45:51.930Z,6.14
2023-01-01T14:49:09.889Z,6.08
2023-01-01T14:52:24.014Z,6.13
2023-01-01T14:55:33.588Z,6.18
2023-01-01T14:58:41.895Z,6.19
2023-01-01T15:01:49.526Z,6.29
2023-01-01T15:05:00.247Z,6.20
2023-01-01T15:08:10.425Z,6.15
2023-01-01T15:11:21.128Z,6.24
2023-01-01T15:14:31.958Z,6.20
2023-01-01T15:17:46.375Z,6.17
2023-01-01T15:20:54.252Z,6.36
2023-01-01T15:24:00.628Z,6.18
2023-01-01T15:27:07.777Z,6.27
2023-01-01T15:30:30.421Z,6.28
2023-01-01T15:33:35.943Z,6.37
2023-01-01T15:36:41.523Z,6.33
2023-01-01T15:39:52.023Z,6.33
2023-01-01T15:42:56.913Z,6.27
2023-01-01T15:46:25.045Z,6.35
2023-01-01T15:49:35.984Z,6.34
2023-01-01T15:52:49.190Z,6.35
2023-01-01T15:56:02.177Z,6.44
2023-01-01T15:59:09.874Z,6.33
2023-01-01T16:02:20.883Z,6.30
2023-01-01T16:05:28.761Z,6.38
2023-01-01T16:08:38.942Z,6.48
2023-01-01T16:11:46.486Z,6.51
2023-01-01T16:14:53.699Z,6.43
2023-01-01T16:18:02.295Z,6.50
2023-01-01T16:21:10.103Z,6.62
2023-01-01T16:24:15.460Z,6.60
2023-01-01T16:27:25.790Z,6.52
2023-01-01T16:30:32.221Z,6.56
2023-01-01T16:33:38.707Z,6.52
2023-01-01T16:36:45.390Z,6.62
2023-01-01T16:39:51.118Z,6.54
2023-01-01T16:42:56.777Z,6.59
2023-01-01T16:46:02.439Z,6.63
2023-01-01T16:49:08.003Z,6.69
2023-01-01T16:52:14.296Z,6.67
2023-01-01T16:55:21.985Z,6.71
2023-01-01T17:01:56.409Z,6.68
2023-01-01T17:05:00.736Z,6.68
2023-01-01T17:08:05.170Z,6.69
2023-01-01T17:11:15.200Z,6.83
2023-01-01T17:14:22.821Z,6.82
2023-01-01T17:17:30.886Z,6.83
2023-01-01T17:20:38.244Z,6.95
2023-01-01T17:23:42.387Z,6.95
2023-01-01T17:26:46.681Z,6.97
2023-01-01T17:29:50.320Z,7.04
2023-01-01T17:32:55.004Z,7.01
2023-01-01T17:36:00.837Z,7.02
2023-01-01T17:39:11.644Z,7.03
2023-01-01T17:42:16.922Z,7.00
2023-01-01T17:45:23.826Z,7.05
2023-01-01T17:48:31.135Z,7.11
2023-01-01T17:51:40.943Z,7.16
2023-01-01T17:54:48.990Z,7.23
2023-01-01T17:57:58.574Z,7.11
2023-01-01T18:01:14.876Z,7.08
2023-01-01T18:04:20.999Z,7.10
2023-01-01T18:07:28.647Z,7.20
2023-01-01T18:10:35.439Z,7.18
2023-01-01T18:13:40.768Z,7.15
2023-01-01T18:16:48.607Z,7.28
2023-01-01T18:19:57.028Z,7.20
2023-01-01T18:23:05.836Z,7.06
2023-01-01T18:26:14.959Z,7.07
2023-01-01T18:29:24.697Z,7.11
2023-01-01T18:32:28.855Z,7.09
2023-01-01T18:35:38.193Z,7.14
2023-01-01T18:38:47.629Z,7.27
2023-01-01T18:41:54.955Z,7.32
2023-01-01T18:45:05.506Z,7.31
2023-01-01T18:48:18.099Z,7.14
2023-01-01T18:51:27.876Z,7.20
2023-01-01T18:54:34.619Z,7.20
2023-01-01T18:57:50.534Z,7.18
2023-01-01T19:01:01.596Z,7.20
2023-01-01T19:04:09.984Z,7.38
2023-01-01T19:07:18.928Z,7.29
2023-01-01T19:10:29.257Z,7.24
2023-01-01T19:13:37.171Z,7.22
2023-01-01T19:16:47.028Z,7.18
2023-01-01T19:19:56.416Z,7.24
2023-01-01T19:23:02.419Z,7.18
2023-01-01T19:26:17.683Z,7.24
2023-01-01T19:29:25.312Z,7.25
2023-01-01T19:32:33.367Z,7.39
2023-01-01T19:35:42.605Z,7.35
2023-01-01T19:38:52.625Z,7.27
2023-01-01T19:42:04.042Z,7.27
2023-01-01T19:45:09.963Z,7.37
2023-01-01T19:48:16.581Z,7.40
2023-01-01T19:51:26.588Z,7.34
2023-01-01T19:54:36.600Z,7.33
2023-01-01T19:57:44.293Z,7.36
2023-01-01T20:00:54.924Z,7.33
2023-01-01T20:04:01.848Z,7.37
2023-01-01T20:07:12.047Z,7.36
2023-01-01T20:10:19.688Z,7.43
2023-01-01T20:13:29.250Z,7.42
2023-01-01T20:16:38.203Z,7.46
2023-01-01T20:19:51.178Z,7.58
2023-01-01T20:22:58.636Z,7.50
2023-01-01T20:26:05.738Z,7.40
2023-01-01T20:29:24.362Z,7.38
2023-01-01T20:32:30.267Z,7.33
2023-01-01T20:35:55.647Z,7.29
2023-01-01T20:39:02.036Z,7.27
2023-01-01T20:42:07.042Z,7.32
2023-01-01T20:45:13.641Z,7.44
2023-01-01T20:48:20.789Z,7.40
2023-01-01T20:51:28.061Z,7.48
2023-01-01T20:54:33.675Z,7.38
2023-01-01T20:57:38.122Z,7.49
2023-01-01T21:00:44.831Z,7.46
2023-01-01T21:03:51.185Z,7.45
2023-01-01T21:06:56.953Z,7.47
2023-01-01T21:10:02.620Z,7.39
2023-01-01T21:13:11.838Z,7.48
2023-01-01T21:16:21.373Z,7.45
2023-01-01T21:19:29.753Z,7.53
2023-01-01T21:22:36.352Z,7.39
2023-01-01T21:25:51.928Z,7.54
2023-01-01T21:29:02.282Z,7.60
2023-01-01T21:32:21.761Z,7.56
2023-01-01T21:35:36.856Z,7.66
2023-01-01T21:38:51.486Z,7.51
2023-01-01T21:42:08.124Z,7.48
2023-01-01T21:45:21.728Z,7.39
2023-01-01T21:48:31.349Z,7.46
2023-01-01T21:51:39.179Z,7.46
2023-01-01T21:54:48.433Z,7.40
2023-01-01T21:58:19.373Z,7.39
2023-01-01T22:01:29.389Z,7.43
2023-01-01T22:04:39.647Z,7.47
2023-01-01T22:08:01.308Z,7.37
2023-01-01T22:11:15.925Z,7.41
2023-01-01T22:14:26.947Z,7.32
2023-01-01T22:17:37.378Z,7.28
2023-01-01T22:20:46.964Z,7.29
2023-01-01T22:23:56.943Z,7.19
2023-01-01T22:27:21.048Z,7.14
2023-01-01T22:30:39.852Z,7.13
2023-01-01T22:33:47.359Z,7.09
2023-01-01T22:36:56.591Z,6.93
2023-01-01T22:40:02.242Z,6.79
2023-01-01T22:43:17.372Z,6.77
2023-01-01T22:46:39.936Z,6.75
2023-01-01T22:49:55.950Z,6.57
2023-01-01T22:53:02.775Z,6.54
2023-01-01T22:56:09.868Z,6.47
2023-01-01T22:59:17.016Z,6.69
2023-01-01T23:02:25.432Z,6.43
2023-01-01T23:05:32.821Z,6.34
2023-01-01T23:08:44.524Z,6.23
2023-01-01T23:11:51.985Z,6.14
2023-01-01T23:15:14.812Z,6.10
2023-01-01T23:18:19.113Z,6.03
2023-01-01T23:21:27.239Z,5.97
2023-01-01T23:24:33.171Z,5.97
2023-01-01T23:27:39.906Z,5.93
2023-01-01T23:30:45.541Z,5.78
2023-01-01T23:33:53.967Z,5.68
2023-01-01T23:37:03.147Z,5.72
2023-01-01T23:40:13.205Z,5.68
2023-01-01T23:43:21.467Z,5.61
2023-01-01T23:46:30.093Z,5.53
2023-01-01T23:49:36.381Z,5.53
2023-01-01T23:52:43.979Z,5.46
2023-01-01T23:55:51.761Z,5.53
2023-01-01T23:59:03.255Z,5.45
